createdAt,value
2018-05-14T00:00:55.843Z,21.30
2018-05-14T00:03:23.361Z,21.20
2018-05-14T00:05:50.882Z,21.30
2018-05-14T00:08:18.406Z,21.30
2018-05-14T00:10:45.917Z,21.30
2018-05-14T00:13:13.435Z,21.30
2018-05-14T00:15:41.714Z,21.20
2018-05-14T00:18:09.283Z,21.20
2018-05-14T00:20:36.794Z,21.10
2018-05-14T00:23:04.316Z,21.00
2018-05-14T00:25:31.820Z,21.10
2018-05-14T00:27:59.380Z,20.90
2018-05-14T00:30:26.873Z,20.90
2018-05-14T00:32:55.145Z,20.90
2018-05-14T00:35:22.716Z,20.90
2018-05-14T00:37:50.281Z,20.90
2018-05-14T00:40:17.815Z,20.90
2018-05-14T00:42:45.312Z,20.80
2018-05-14T00:45:12.839Z,20.80
2018-05-14T00:47:40.343Z,20.70
2018-05-14T00:50:07.959Z,20.70
2018-05-14T00:52:35.460Z,20.80
2018-05-14T00:55:14.764Z,20.60
2018-05-14T00:57:43.049Z,20.40
2018-05-14T01:00:10.638Z,20.40
2018-05-14T01:02:38.173Z,20.40
2018-05-14T01:05:06.485Z,20.30
2018-05-14T01:07:33.989Z,20.30
2018-05-14T01:10:01.509Z,20.30
2018-05-14T01:12:29.025Z,20.20
2018-05-14T01:14:57.318Z,20.30
2018-05-14T01:17:24.841Z,20.30
2018-05-14T01:19:52.416Z,20.40
2018-05-14T01:22:20.754Z,20.20
2018-05-14T01:24:53.986Z,20.20
2018-05-14T01:27:21.529Z,20.20
2018-05-14T01:29:49.028Z,20.10
2018-05-14T01:32:16.575Z,20.10
2018-05-14T01:34:44.100Z,20.10
2018-05-14T01:37:11.610Z,20.00
2018-05-14T01:39:39.126Z,20.00
2018-05-14T01:42:06.653Z,20.00
2018-05-14T01:44:34.175Z,20.10
2018-05-14T01:47:02.448Z,20.00
2018-05-14T01:49:30.794Z,20.00
2018-05-14T01:51:58.294Z,20.00
2018-05-14T01:54:25.857Z,20.00
2018-05-14T01:56:54.156Z,19.90
2018-05-14T01:59:21.674Z,19.80
2018-05-14T02:01:49.202Z,19.80
2018-05-14T02:04:16.701Z,19.80
2018-05-14T02:06:45.014Z,19.80
2018-05-14T02:09:12.540Z,19.80
2018-05-14T02:11:40.053Z,19.70
2018-05-14T02:14:07.579Z,19.70
2018-05-14T02:16:35.106Z,19.70
2018-05-14T02:19:02.673Z,19.70
2018-05-14T02:21:30.954Z,19.70
2018-05-14T02:23:59.218Z,19.80
2018-05-14T02:26:27.493Z,19.80
2018-05-14T02:28:55.024Z,19.80
2018-05-14T02:31:22.574Z,19.90
2018-05-14T02:33:50.078Z,19.90
2018-05-14T02:36:18.354Z,19.90
2018-05-14T02:38:46.632Z,19.90
2018-05-14T02:41:14.943Z,19.90
2018-05-14T02:43:42.469Z,19.90
2018-05-14T02:46:09.980Z,19.90
2018-05-14T02:48:37.486Z,19.80
2018-05-14T02:51:05.787Z,19.80
2018-05-14T02:53:33.307Z,19.80
2018-05-14T02:56:00.867Z,19.80
2018-05-14T02:58:28.386Z,19.80
2018-05-14T03:00:55.923Z,19.70
2018-05-14T03:03:24.248Z,19.50
2018-05-14T03:05:52.561Z,19.50
2018-05-14T03:08:20.841Z,19.50
2018-05-14T03:10:48.352Z,19.50
2018-05-14T03:13:15.860Z,19.40
2018-05-14T03:15:44.167Z,19.20
2018-05-14T03:18:11.665Z,19.20
2018-05-14T03:20:39.948Z,19.10
2018-05-14T03:23:07.466Z,19.00
2018-05-14T03:25:35.034Z,19.00
2018-05-14T03:28:02.550Z,19.10
2018-05-14T03:30:30.858Z,19.10
2018-05-14T03:32:58.442Z,19.10
2018-05-14T03:35:25.959Z,19.10
2018-05-14T03:37:54.241Z,19.00
2018-05-14T03:40:22.517Z,19.00
2018-05-14T03:42:50.803Z,18.90
2018-05-14T03:45:18.319Z,18.90
2018-05-14T03:47:45.813Z,18.90
2018-05-14T03:50:13.351Z,18.80
2018-05-14T03:52:40.897Z,18.80
2018-05-14T03:55:08.418Z,18.80
2018-05-14T03:57:35.949Z,18.90
2018-05-14T04:00:16.213Z,18.90
2018-05-14T04:02:55.587Z,18.90
2018-05-14T04:05:28.962Z,18.90
2018-05-14T04:07:56.476Z,18.90
2018-05-14T04:10:24.801Z,18.70
2018-05-14T04:12:52.337Z,18.70
2018-05-14T04:15:19.847Z,18.70
2018-05-14T04:17:47.381Z,18.60
2018-05-14T04:20:14.944Z,18.60
2018-05-14T04:22:42.491Z,18.60
2018-05-14T04:25:10.023Z,18.70
2018-05-14T04:27:37.587Z,18.80
2018-05-14T04:38:50.729Z,18.80
2018-05-14T04:41:18.242Z,19.00
2018-05-14T04:43:46.530Z,19.30
2018-05-14T04:46:14.063Z,19.30
2018-05-14T04:48:41.582Z,19.30
2018-05-14T04:51:09.125Z,19.30
2018-05-14T04:53:36.657Z,19.30
2018-05-14T04:56:04.210Z,19.20
2018-05-14T04:58:32.546Z,19.10
2018-05-14T05:01:00.067Z,19.10
2018-05-14T05:03:27.661Z,19.20
2018-05-14T05:05:55.182Z,19.20
2018-05-14T05:08:22.697Z,19.30
2018-05-14T05:10:50.219Z,19.20
2018-05-14T05:13:17.785Z,19.20
2018-05-14T05:15:45.318Z,19.20
2018-05-14T05:18:13.668Z,19.20
2018-05-14T05:20:41.233Z,19.10
2018-05-14T05:23:08.813Z,19.20
2018-05-14T05:25:36.452Z,19.20
2018-05-14T05:28:03.975Z,19.20
2018-05-14T05:30:31.520Z,19.20
2018-05-14T05:32:59.063Z,19.10
2018-05-14T05:35:26.605Z,19.10
2018-05-14T05:37:55.036Z,19.40
2018-05-14T05:40:23.172Z,19.30
2018-05-14T05:42:50.724Z,19.30
2018-05-14T05:45:18.272Z,19.30
2018-05-14T05:47:46.573Z,19.30
2018-05-14T05:50:14.853Z,19.40
2018-05-14T05:52:42.357Z,19.40
2018-05-14T05:55:11.558Z,19.40
2018-05-14T05:57:39.291Z,19.50
2018-05-14T06:00:06.831Z,19.60
2018-05-14T06:02:35.117Z,19.70
2018-05-14T06:05:02.663Z,19.70
2018-05-14T06:07:30.978Z,19.80
2018-05-14T06:09:58.517Z,19.80
2018-05-14T06:12:26.025Z,19.80
2018-05-14T06:14:58.176Z,19.90
2018-05-14T06:17:25.718Z,20.10
2018-05-14T06:19:53.284Z,20.10
2018-05-14T06:22:20.863Z,20.20
2018-05-14T06:24:48.397Z,20.20
2018-05-14T06:27:15.914Z,20.20
2018-05-14T06:29:44.237Z,20.20
2018-05-14T06:32:11.748Z,20.10
2018-05-14T06:34:39.271Z,20.00
2018-05-14T06:37:06.793Z,20.00
2018-05-14T06:39:34.324Z,20.00
2018-05-14T06:42:01.862Z,20.20
2018-05-14T06:44:29.382Z,20.20
2018-05-14T06:46:56.912Z,20.30
2018-05-14T06:49:24.461Z,20.40
2018-05-14T06:51:51.984Z,20.60
2018-05-14T06:54:19.534Z,20.60
2018-05-14T06:56:47.091Z,20.60
2018-05-14T06:59:14.624Z,20.70
2018-05-14T07:01:42.288Z,20.80
2018-05-14T07:04:09.868Z,20.90
2018-05-14T07:06:37.437Z,20.90
2018-05-14T07:09:05.779Z,21.00
2018-05-14T07:11:33.410Z,21.00
2018-05-14T07:14:00.900Z,21.00
2018-05-14T07:16:29.249Z,21.20
2018-05-14T07:18:56.763Z,21.20
2018-05-14T07:21:24.344Z,21.30
2018-05-14T07:23:51.934Z,21.30
2018-05-14T07:26:19.454Z,21.50
2018-05-14T07:28:47.020Z,21.50
2018-05-14T07:31:14.567Z,21.40
2018-05-14T07:33:42.156Z,21.30
2018-05-14T07:36:09.678Z,21.30
2018-05-14T07:38:37.236Z,21.40
2018-05-14T07:41:04.755Z,21.40
2018-05-14T07:43:32.269Z,21.60
2018-05-14T07:45:59.995Z,21.60
2018-05-14T07:48:27.491Z,21.70
2018-05-14T07:50:55.033Z,21.80
2018-05-14T07:53:22.557Z,21.90
2018-05-14T07:55:50.070Z,21.80
2018-05-14T07:58:17.586Z,21.90
2018-05-14T08:00:45.114Z,22.00
2018-05-14T08:03:12.625Z,22.10
2018-05-14T08:05:40.197Z,22.20
2018-05-14T08:08:07.749Z,22.30
2018-05-14T08:10:35.294Z,22.30
2018-05-14T08:13:03.592Z,22.60
2018-05-14T08:15:31.145Z,22.60
2018-05-14T08:17:58.656Z,22.60
2018-05-14T08:20:26.160Z,22.50
2018-05-14T08:22:54.494Z,22.60
2018-05-14T08:25:22.034Z,22.50
2018-05-14T08:27:49.542Z,22.70
2018-05-14T08:30:17.142Z,22.80
2018-05-14T08:32:44.656Z,22.60
2018-05-14T08:35:12.934Z,22.70
2018-05-14T08:37:40.453Z,22.70
2018-05-14T08:40:07.990Z,22.80
2018-05-14T08:42:35.514Z,22.90
2018-05-14T08:45:03.806Z,23.00
2018-05-14T08:47:32.151Z,23.10
2018-05-14T08:49:59.693Z,23.10
2018-05-14T08:52:27.215Z,23.20
2018-05-14T08:54:54.852Z,23.20
2018-05-14T08:57:22.374Z,23.10
2018-05-14T08:59:49.911Z,23.20
2018-05-14T09:02:17.416Z,23.40
2018-05-14T09:04:44.978Z,23.50
2018-05-14T09:07:12.497Z,23.60
2018-05-14T09:09:40.014Z,23.70
2018-05-14T09:12:08.317Z,23.70
2018-05-14T09:14:35.900Z,23.70
2018-05-14T09:17:03.360Z,23.80
2018-05-14T09:19:30.935Z,23.90
2018-05-14T09:21:58.450Z,24.00
2018-05-14T09:24:25.961Z,24.00
2018-05-14T09:26:53.506Z,24.20
2018-05-14T09:29:21.024Z,24.20
2018-05-14T09:31:48.565Z,24.40
2018-05-14T09:34:16.864Z,24.10
2018-05-14T09:36:45.155Z,24.40
2018-05-14T09:39:12.744Z,24.40
2018-05-14T09:41:40.390Z,24.40
2018-05-14T09:44:13.453Z,24.50
2018-05-14T09:46:41.112Z,24.70
2018-05-14T09:49:15.498Z,24.80
2018-05-14T09:51:43.133Z,24.80
2018-05-14T09:54:10.653Z,25.00
2018-05-14T09:56:38.952Z,25.30
2018-05-14T09:59:06.481Z,25.30
2018-05-14T10:01:33.998Z,25.50
2018-05-14T10:04:01.541Z,25.40
2018-05-14T10:06:29.073Z,25.40
2018-05-14T10:08:56.575Z,25.50
2018-05-14T10:11:24.104Z,25.30
2018-05-14T10:13:51.646Z,25.30
2018-05-14T10:16:19.180Z,25.50
2018-05-14T10:18:46.784Z,25.60
2018-05-14T10:21:14.262Z,25.90
2018-05-14T10:23:41.772Z,25.80
2018-05-14T10:26:09.311Z,25.80
2018-05-14T10:28:36.866Z,25.90
2018-05-14T10:31:04.380Z,26.10
2018-05-14T10:33:31.926Z,26.30
2018-05-14T10:35:59.454Z,27.20
2018-05-14T10:38:27.011Z,28.90
2018-05-14T10:40:54.497Z,30.40
2018-05-14T10:43:22.030Z,31.50
2018-05-14T10:45:49.604Z,32.20
2018-05-14T10:48:17.352Z,32.60
2018-05-14T10:50:44.897Z,34.60
2018-05-14T10:53:12.431Z,35.40
2018-05-14T10:55:39.928Z,35.90
2018-05-14T10:58:07.457Z,35.70
2018-05-14T11:00:35.002Z,35.60
2018-05-14T11:03:02.518Z,36.00
2018-05-14T11:05:30.031Z,37.40
2018-05-14T11:07:57.574Z,38.60
2018-05-14T11:10:25.115Z,38.80
2018-05-14T11:12:53.407Z,40.40
2018-05-14T11:15:21.704Z,40.50
2018-05-14T11:17:49.240Z,40.50
2018-05-14T11:20:16.771Z,40.40
2018-05-14T11:22:44.301Z,40.70
2018-05-14T11:25:11.883Z,41.20
2018-05-14T11:27:39.434Z,41.30
2018-05-14T11:30:06.979Z,41.10
2018-05-14T11:32:34.502Z,40.70
2018-05-14T11:35:02.837Z,41.90
2018-05-14T11:37:30.376Z,41.90
2018-05-14T11:39:57.902Z,41.60
2018-05-14T11:42:26.256Z,41.90
2018-05-14T11:44:53.808Z,41.90
2018-05-14T11:47:21.361Z,42.30
2018-05-14T11:49:48.882Z,43.60
2018-05-14T11:52:16.526Z,43.30
2018-05-14T11:54:44.174Z,40.50
2018-05-14T11:57:11.651Z,38.60
2018-05-14T11:59:39.192Z,39.10
2018-05-14T12:02:07.476Z,39.40
2018-05-14T12:04:35.754Z,39.90
2018-05-14T12:07:04.059Z,39.50
2018-05-14T12:09:31.621Z,39.50
2018-05-14T12:11:59.154Z,38.70
2018-05-14T12:14:27.440Z,38.10
2018-05-14T12:16:54.950Z,38.10
2018-05-14T12:19:22.456Z,37.40
2018-05-14T12:21:49.997Z,38.00
2018-05-14T12:24:18.347Z,36.50
2018-05-14T12:26:45.928Z,36.40
2018-05-14T12:29:13.463Z,36.40
2018-05-14T12:31:40.990Z,35.70
2018-05-14T12:34:08.591Z,35.60
2018-05-14T12:36:36.120Z,35.40
2018-05-14T12:39:03.753Z,35.10
2018-05-14T12:41:31.329Z,35.30
2018-05-14T12:43:58.865Z,35.30
2018-05-14T12:46:26.413Z,34.80
2018-05-14T12:48:53.947Z,34.30
2018-05-14T12:51:21.465Z,33.30
2018-05-14T12:53:49.031Z,32.80
2018-05-14T12:56:16.599Z,32.20
2018-05-14T12:58:44.128Z,32.00
2018-05-14T13:01:12.419Z,32.20
2018-05-14T13:03:40.050Z,32.20
2018-05-14T13:06:07.663Z,32.30
2018-05-14T13:08:35.235Z,32.10
2018-05-14T13:11:02.740Z,31.60
2018-05-14T13:13:30.263Z,30.90
2018-05-14T13:15:58.561Z,30.20
2018-05-14T13:18:26.103Z,30.20
2018-05-14T13:20:53.812Z,30.10
2018-05-14T13:23:22.101Z,29.40
2018-05-14T13:25:49.615Z,29.40
2018-05-14T13:28:17.138Z,29.20
2018-05-14T13:30:44.664Z,29.10
2018-05-14T13:33:12.207Z,29.20
2018-05-14T13:35:39.736Z,29.30
2018-05-14T13:38:07.405Z,29.30
2018-05-14T13:40:34.841Z,29.70
2018-05-14T13:43:02.441Z,29.90
2018-05-14T13:45:29.980Z,29.80
2018-05-14T13:47:57.561Z,29.90
2018-05-14T13:50:25.086Z,29.90
2018-05-14T13:52:52.599Z,30.10
2018-05-14T13:55:20.188Z,30.10
2018-05-14T13:57:47.752Z,29.90
2018-05-14T14:00:15.287Z,29.50
2018-05-14T14:02:43.587Z,29.20
2018-05-14T14:05:11.119Z,29.20
2018-05-14T14:07:38.674Z,28.90
2018-05-14T14:10:06.231Z,28.60
2018-05-14T14:12:33.769Z,28.40
2018-05-14T14:15:01.369Z,28.50
2018-05-14T14:17:28.921Z,28.20
2018-05-14T14:19:57.217Z,28.00
2018-05-14T14:22:24.749Z,28.00
2018-05-14T14:24:52.317Z,27.90
2018-05-14T14:27:20.642Z,27.50
2018-05-14T14:29:48.220Z,27.40
2018-05-14T14:32:15.720Z,27.60
2018-05-14T14:34:44.013Z,27.50
2018-05-14T14:37:11.632Z,27.50
2018-05-14T14:39:39.184Z,27.40
2018-05-14T14:42:06.798Z,27.40
2018-05-14T14:44:34.297Z,27.20
2018-05-14T14:47:01.816Z,27.20
2018-05-14T14:49:29.347Z,27.20
2018-05-14T14:51:56.932Z,26.90
2018-05-14T14:54:24.539Z,26.90
2018-05-14T14:56:52.060Z,27.00
2018-05-14T14:59:19.630Z,27.30
2018-05-14T15:01:47.158Z,27.40
2018-05-14T15:04:14.714Z,27.20
2018-05-14T15:06:43.116Z,27.00
2018-05-14T15:09:10.691Z,27.00
2018-05-14T15:11:38.193Z,27.00
2018-05-14T15:14:05.695Z,27.00
2018-05-14T15:16:33.237Z,27.10
2018-05-14T15:19:01.527Z,27.40
2018-05-14T15:21:29.091Z,27.40
2018-05-14T15:23:57.384Z,27.40
2018-05-14T15:26:24.901Z,27.40
2018-05-14T15:28:53.178Z,27.40
2018-05-14T15:31:21.537Z,27.20
2018-05-14T15:33:49.079Z,27.20
2018-05-14T15:36:16.606Z,27.80
2018-05-14T15:38:44.131Z,28.20
2018-05-14T15:41:11.685Z,28.90
2018-05-14T15:43:39.242Z,28.90
2018-05-14T15:46:06.954Z,29.30
2018-05-14T15:48:34.571Z,28.50
2018-05-14T15:51:02.078Z,28.50
2018-05-14T15:53:29.737Z,28.40
2018-05-14T15:55:57.342Z,28.70
2018-05-14T15:58:24.877Z,28.80
2018-05-14T16:00:52.426Z,28.90
2018-05-14T16:03:20.167Z,28.90
2018-05-14T16:05:47.716Z,28.70
2018-05-14T16:08:16.006Z,28.00
2018-05-14T16:10:44.317Z,27.70
2018-05-14T16:13:11.835Z,27.60
2018-05-14T16:15:39.371Z,27.40
2018-05-14T16:18:06.897Z,27.30
2018-05-14T16:20:34.409Z,27.60
2018-05-14T16:23:01.989Z,27.70
2018-05-14T16:25:29.613Z,27.60
2018-05-14T16:27:57.177Z,27.60
2018-05-14T16:30:24.852Z,27.60
2018-05-14T16:32:52.467Z,27.60
2018-05-14T16:35:19.985Z,27.50
2018-05-14T16:37:47.523Z,27.70
2018-05-14T16:40:15.037Z,27.70
2018-05-14T16:42:42.639Z,27.40
2018-05-14T16:45:10.170Z,27.30
2018-05-14T16:47:37.785Z,27.50
2018-05-14T16:50:06.197Z,27.60
2018-05-14T16:52:33.756Z,27.50
2018-05-14T16:55:01.680Z,27.60
2018-05-14T16:57:29.223Z,27.40
2018-05-14T16:59:57.001Z,27.20
2018-05-14T17:02:24.589Z,27.20
2018-05-14T17:04:52.947Z,26.60
2018-05-14T17:07:20.562Z,26.60
2018-05-14T17:09:48.078Z,26.50
2018-05-14T17:12:15.600Z,26.30
2018-05-14T17:14:43.149Z,26.30
2018-05-14T17:17:10.781Z,26.20
2018-05-14T17:19:38.321Z,26.20
2018-05-14T17:22:05.956Z,26.20
2018-05-14T17:24:33.524Z,26.10
2018-05-14T17:27:01.888Z,25.50
2018-05-14T17:29:29.553Z,25.50
2018-05-14T17:31:57.094Z,25.40
2018-05-14T17:34:25.479Z,25.20
2018-05-14T17:36:53.040Z,25.10
2018-05-14T17:39:20.611Z,25.10
2018-05-14T17:41:48.353Z,25.00
2018-05-14T17:44:15.870Z,24.90
2018-05-14T17:46:43.408Z,24.80
2018-05-14T17:49:10.930Z,24.80
2018-05-14T17:51:39.301Z,24.80
2018-05-14T17:54:06.888Z,24.70
2018-05-14T17:56:34.430Z,24.70
2018-05-14T17:59:02.015Z,24.60
2018-05-14T18:01:29.552Z,24.50
2018-05-14T18:03:57.091Z,24.50
2018-05-14T18:06:24.613Z,24.40
2018-05-14T18:08:52.903Z,24.30
2018-05-14T18:11:21.199Z,24.20
2018-05-14T18:13:48.895Z,24.20
2018-05-14T18:16:16.502Z,24.10
2018-05-14T18:18:44.017Z,24.10
2018-05-14T18:21:12.864Z,24.10
2018-05-14T18:23:46.748Z,24.00
2018-05-14T18:26:18.093Z,24.00
2018-05-14T18:28:49.476Z,24.00
2018-05-14T18:31:22.815Z,23.90
2018-05-14T18:33:50.331Z,23.80
2018-05-14T18:36:17.853Z,23.70
2018-05-14T18:38:45.406Z,23.70
2018-05-14T18:41:12.949Z,23.60
2018-05-14T18:43:40.594Z,23.50
2018-05-14T18:46:08.131Z,23.50
2018-05-14T18:48:36.418Z,23.30
2018-05-14T18:51:03.936Z,23.30
2018-05-14T18:53:31.563Z,23.30
2018-05-14T18:55:59.191Z,23.20
2018-05-14T18:58:26.750Z,23.20
2018-05-14T19:00:54.309Z,23.30
2018-05-14T19:03:22.666Z,23.50
2018-05-14T19:05:50.243Z,23.40
2018-05-14T19:08:18.582Z,23.40
2018-05-14T19:10:51.850Z,23.40
2018-05-14T19:13:19.408Z,23.40
2018-05-14T19:15:52.661Z,23.30
2018-05-14T19:18:20.230Z,23.30
2018-05-14T19:20:48.584Z,23.20
2018-05-14T19:23:21.877Z,23.20
2018-05-14T19:25:49.412Z,23.20
2018-05-14T19:28:22.504Z,23.20
2018-05-14T19:30:50.057Z,23.10
2018-05-14T19:33:23.284Z,23.10
2018-05-14T19:35:56.479Z,23.10
2018-05-14T19:38:24.111Z,23.10
2018-05-14T19:40:51.686Z,23.10
2018-05-14T19:43:19.215Z,23.10
2018-05-14T19:45:46.772Z,23.10
2018-05-14T19:48:14.380Z,23.00
2018-05-14T19:50:41.930Z,22.90
2018-05-14T19:53:09.512Z,22.70
2018-05-14T19:55:37.204Z,22.50
2018-05-14T19:58:04.792Z,22.60
2018-05-14T20:00:32.320Z,22.60
2018-05-14T20:02:59.862Z,22.60
2018-05-14T20:05:28.172Z,22.50
2018-05-14T20:07:55.697Z,22.50
2018-05-14T20:10:23.210Z,22.50
2018-05-14T20:12:50.793Z,22.50
2018-05-14T20:15:18.393Z,22.40
2018-05-14T20:17:46.689Z,22.40
2018-05-14T20:20:14.373Z,22.40
2018-05-14T20:22:41.843Z,22.40
2018-05-14T20:25:09.368Z,22.40
2018-05-14T20:27:36.989Z,22.20
2018-05-14T20:30:04.594Z,22.10
2018-05-14T20:32:32.161Z,22.00
2018-05-14T20:34:59.708Z,22.00
2018-05-14T20:37:27.311Z,22.10
2018-05-14T20:39:54.824Z,22.10
2018-05-14T20:42:23.226Z,22.00
2018-05-14T20:44:50.737Z,21.90
2018-05-14T20:47:19.065Z,21.70
2018-05-14T20:49:46.620Z,21.70
2018-05-14T20:52:14.183Z,21.70
2018-05-14T20:54:41.774Z,21.60
2018-05-14T20:57:09.324Z,21.40
2018-05-14T20:59:37.025Z,21.30
2018-05-14T21:02:04.585Z,21.10
2018-05-14T21:04:33.017Z,20.90
2018-05-14T21:07:00.550Z,20.90
2018-05-14T21:09:28.097Z,20.90
2018-05-14T21:11:56.452Z,21.10
2018-05-14T21:14:24.009Z,21.10
2018-05-14T21:16:51.521Z,21.10
2018-05-14T21:19:19.106Z,21.20
2018-05-14T21:21:46.643Z,21.10
2018-05-14T21:24:14.194Z,21.10
2018-05-14T21:26:41.792Z,21.00
2018-05-14T21:29:09.317Z,20.90
2018-05-14T21:31:36.859Z,20.90
2018-05-14T21:34:04.430Z,20.90
2018-05-14T21:36:31.960Z,20.90
2018-05-14T21:38:59.491Z,20.90
2018-05-14T21:41:27.064Z,20.80
2018-05-14T21:43:54.662Z,20.90
2018-05-14T21:46:22.207Z,20.80
2018-05-14T21:48:49.872Z,20.70
2018-05-14T21:51:17.427Z,20.70
2018-05-14T21:53:45.800Z,20.90
2018-05-14T21:56:13.315Z,20.90
2018-05-14T21:58:40.859Z,21.00
2018-05-14T22:01:08.438Z,21.00
2018-05-14T22:03:35.957Z,20.90
2018-05-14T22:06:04.253Z,20.90
2018-05-14T22:08:31.787Z,20.90
2018-05-14T22:10:59.309Z,21.00
2018-05-14T22:13:26.849Z,21.00
2018-05-14T22:15:54.350Z,20.90
2018-05-14T22:18:21.886Z,21.00
2018-05-14T22:20:49.407Z,20.90
2018-05-14T22:23:16.944Z,20.90
2018-05-14T22:25:44.477Z,20.90
2018-05-14T22:28:11.999Z,20.90
2018-05-14T22:30:39.543Z,20.70
2018-05-14T22:33:07.122Z,20.70
2018-05-14T22:35:34.637Z,20.60
2018-05-14T22:38:02.216Z,20.60
2018-05-14T22:40:29.760Z,20.60
2018-05-14T22:42:57.285Z,20.60
2018-05-14T22:45:24.837Z,20.50
2018-05-14T22:47:52.361Z,20.40
2018-05-14T22:50:19.899Z,20.40
2018-05-14T22:52:48.176Z,20.30
2018-05-14T22:55:15.756Z,20.30
2018-05-14T22:57:43.280Z,20.30
2018-05-14T23:00:10.795Z,20.30
2018-05-14T23:02:38.348Z,20.20
2018-05-14T23:05:05.876Z,20.20
2018-05-14T23:07:34.191Z,20.10
2018-05-14T23:10:01.729Z,20.10
2018-05-14T23:12:29.245Z,20.00
2018-05-14T23:14:56.807Z,20.00
2018-05-14T23:17:24.344Z,19.90
2018-05-14T23:19:51.867Z,19.90
2018-05-14T23:22:19.421Z,19.80
2018-05-14T23:24:46.944Z,19.80
2018-05-14T23:27:14.493Z,19.80
2018-05-14T23:29:41.998Z,19.80
2018-05-14T23:32:09.562Z,19.80
2018-05-14T23:34:37.841Z,19.70
2018-05-14T23:37:06.253Z,19.70
2018-05-14T23:39:33.806Z,19.70
2018-05-14T23:42:01.312Z,19.70
2018-05-14T23:44:28.902Z,19.60
2018-05-14T23:46:57.219Z,19.50
2018-05-14T23:49:24.749Z,19.50
2018-05-14T23:51:52.301Z,19.40
2018-05-14T23:54:20.576Z,19.40
2018-05-14T23:56:48.867Z,19.30
2018-05-14T23:59:16.419Z,19.30
